sensor_id;sensor_type;location;lat;lon;timestamp;P1;durP1;ratioP1;P2;durP2;ratioP2
6133;SDS011;3098;42.678;23.364;2023-10-08T00:00:46;10.80;;;4.72;;
6133;SDS011;3098;42.678;23.364;2023-10-08T00:03:15;12.32;;;4.90;;
6133;SDS011;3098;42.678;23.364;2023-10-08T00:05:44;10.60;;;4.45;;
6133;SDS011;3098;42.678;23.364;2023-10-08T00:08:12;7.90;;;3.50;;
6133;SDS011;3098;42.678;23.364;2023-10-08T00:10:42;7.82;;;4.22;;
6133;SDS011;3098;42.678;23.364;2023-10-08T00:13:10;9.02;;;4.45;;
6133;SDS011;3098;42.678;23.364;2023-10-08T00:15:41;14.13;;;4.40;;
6133;SDS011;3098;42.678;23.364;2023-10-08T00:18:18;9.23;;;4.80;;
6133;SDS011;3098;42.678;23.364;2023-10-08T00:20:48;12.82;;;5.13;;
6133;SDS011;3098;42.678;23.364;2023-10-08T00:23:20;8.82;;;4.57;;
6133;SDS011;3098;42.678;23.364;2023-10-08T00:25:50;11.68;;;4.88;;
6133;SDS011;3098;42.678;23.364;2023-10-08T00:28:18;10.20;;;4.72;;
6133;SDS011;3098;42.678;23.364;2023-10-08T00:30:46;10.32;;;4.30;;
6133;SDS011;3098;42.678;23.364;2023-10-08T00:33:14;12.18;;;4.85;;
6133;SDS011;3098;42.678;23.364;2023-10-08T00:35:44;14.93;;;4.43;;
6133;SDS011;3098;42.678;23.364;2023-10-08T00:38:12;13.95;;;5.75;;
6133;SDS011;3098;42.678;23.364;2023-10-08T00:40:43;13.68;;;5.95;;
6133;SDS011;3098;42.678;23.364;2023-10-08T00:43:11;9.25;;;4.80;;
6133;SDS011;3098;42.678;23.364;2023-10-08T00:45:53;15.18;;;5.85;;
6133;SDS011;3098;42.678;23.364;2023-10-08T00:48:24;8.93;;;5.15;;
6133;SDS011;3098;42.678;23.364;2023-10-08T00:50:58;11.35;;;4.93;;
6133;SDS011;3098;42.678;23.364;2023-10-08T00:53:46;9.52;;;5.38;;
6133;SDS011;3098;42.678;23.364;2023-10-08T00:56:23;11.77;;;5.30;;
6133;SDS011;3098;42.678;23.364;2023-10-08T00:59:09;11.18;;;5.20;;
6133;SDS011;3098;42.678;23.364;2023-10-08T01:01:41;12.55;;;5.40;;
6133;SDS011;3098;42.678;23.364;2023-10-08T01:04:16;11.98;;;4.72;;
6133;SDS011;3098;42.678;23.364;2023-10-08T01:06:49;13.27;;;5.35;;
6133;SDS011;3098;42.678;23.364;2023-10-08T01:09:20;11.32;;;4.72;;
6133;SDS011;3098;42.678;23.364;2023-10-08T01:12:09;14.95;;;5.35;;
6133;SDS011;3098;42.678;23.364;2023-10-08T01:14:40;12.88;;;5.32;;
6133;SDS011;3098;42.678;23.364;2023-10-08T01:17:12;11.15;;;5.90;;
6133;SDS011;3098;42.678;23.364;2023-10-08T01:19:41;12.57;;;6.00;;
6133;SDS011;3098;42.678;23.364;2023-10-08T01:22:12;13.32;;;6.18;;
6133;SDS011;3098;42.678;23.364;2023-10-08T01:24:43;10.60;;;5.82;;
6133;SDS011;3098;42.678;23.364;2023-10-08T01:27:13;17.27;;;6.00;;
6133;SDS011;3098;42.678;23.364;2023-10-08T01:29:46;10.88;;;5.93;;
6133;SDS011;3098;42.678;23.364;2023-10-08T01:32:15;19.02;;;5.63;;
6133;SDS011;3098;42.678;23.364;2023-10-08T01:34:42;19.10;;;5.65;;
6133;SDS011;3098;42.678;23.364;2023-10-08T01:37:15;11.07;;;5.05;;
6133;SDS011;3098;42.678;23.364;2023-10-08T01:39:43;12.80;;;5.75;;
6133;SDS011;3098;42.678;23.364;2023-10-08T01:42:11;14.98;;;5.60;;
6133;SDS011;3098;42.678;23.364;2023-10-08T01:44:43;11.98;;;5.22;;
6133;SDS011;3098;42.678;23.364;2023-10-08T01:47:16;7.75;;;4.50;;
6133;SDS011;3098;42.678;23.364;2023-10-08T01:49:44;12.80;;;5.30;;
6133;SDS011;3098;42.678;23.364;2023-10-08T01:52:14;12.00;;;5.50;;
6133;SDS011;3098;42.678;23.364;2023-10-08T01:54:46;12.93;;;5.72;;
6133;SDS011;3098;42.678;23.364;2023-10-08T01:57:13;17.23;;;5.65;;
6133;SDS011;3098;42.678;23.364;2023-10-08T01:59:42;12.93;;;5.00;;
6133;SDS011;3098;42.678;23.364;2023-10-08T02:02:09;11.23;;;4.82;;
6133;SDS011;3098;42.678;23.364;2023-10-08T02:04:38;9.38;;;4.82;;
6133;SDS011;3098;42.678;23.364;2023-10-08T02:07:07;9.77;;;4.97;;
6133;SDS011;3098;42.678;23.364;2023-10-08T02:09:39;12.90;;;5.68;;
6133;SDS011;3098;42.678;23.364;2023-10-08T02:12:06;12.77;;;5.50;;
6133;SDS011;3098;42.678;23.364;2023-10-08T02:14:34;13.23;;;5.57;;
6133;SDS011;3098;42.678;23.364;2023-10-08T02:17:02;12.45;;;4.72;;
6133;SDS011;3098;42.678;23.364;2023-10-08T02:19:31;16.50;;;5.28;;
6133;SDS011;3098;42.678;23.364;2023-10-08T02:22:00;10.85;;;4.80;;
6133;SDS011;3098;42.678;23.364;2023-10-08T02:24:34;11.55;;;4.70;;
6133;SDS011;3098;42.678;23.364;2023-10-08T02:27:05;16.23;;;5.40;;
6133;SDS011;3098;42.678;23.364;2023-10-08T02:29:33;9.82;;;4.70;;
6133;SDS011;3098;42.678;23.364;2023-10-08T02:32:00;12.52;;;5.38;;
6133;SDS011;3098;42.678;23.364;2023-10-08T02:34:27;11.48;;;5.18;;
6133;SDS011;3098;42.678;23.364;2023-10-08T02:36:56;11.23;;;4.80;;
6133;SDS011;3098;42.678;23.364;2023-10-08T02:39:24;9.77;;;4.68;;
6133;SDS011;3098;42.678;23.364;2023-10-08T02:41:53;10.13;;;4.32;;
6133;SDS011;3098;42.678;23.364;2023-10-08T02:44:25;9.13;;;4.80;;
6133;SDS011;3098;42.678;23.364;2023-10-08T02:46:53;7.30;;;4.07;;
6133;SDS011;3098;42.678;23.364;2023-10-08T02:49:21;9.82;;;5.05;;
6133;SDS011;3098;42.678;23.364;2023-10-08T02:51:50;10.50;;;4.97;;
6133;SDS011;3098;42.678;23.364;2023-10-08T02:54:20;8.30;;;4.30;;
6133;SDS011;3098;42.678;23.364;2023-10-08T02:56:57;10.07;;;4.80;;
6133;SDS011;3098;42.678;23.364;2023-10-08T02:59:30;10.65;;;5.50;;
6133;SDS011;3098;42.678;23.364;2023-10-08T03:02:04;12.45;;;4.63;;
6133;SDS011;3098;42.678;23.364;2023-10-08T03:04:38;15.15;;;5.70;;
6133;SDS011;3098;42.678;23.364;2023-10-08T03:07:07;23.05;;;10.18;;
6133;SDS011;3098;42.678;23.364;2023-10-08T03:09:46;10.45;;;4.88;;
6133;SDS011;3098;42.678;23.364;2023-10-08T03:12:15;12.20;;;4.05;;
6133;SDS011;3098;42.678;23.364;2023-10-08T03:14:45;10.73;;;4.38;;
6133;SDS011;3098;42.678;23.364;2023-10-08T03:17:27;12.35;;;4.55;;
6133;SDS011;3098;42.678;23.364;2023-10-08T03:19:55;9.05;;;4.28;;
6133;SDS011;3098;42.678;23.364;2023-10-08T03:22:44;11.10;;;4.78;;
6133;SDS011;3098;42.678;23.364;2023-10-08T03:25:12;11.98;;;4.38;;
6133;SDS011;3098;42.678;23.364;2023-10-08T03:27:43;9.13;;;4.00;;
6133;SDS011;3098;42.678;23.364;2023-10-08T03:30:13;7.97;;;3.80;;
6133;SDS011;3098;42.678;23.364;2023-10-08T03:32:42;8.18;;;4.10;;
6133;SDS011;3098;42.678;23.364;2023-10-08T03:35:16;9.05;;;3.95;;
6133;SDS011;3098;42.678;23.364;2023-10-08T03:37:53;10.90;;;4.32;;
6133;SDS011;3098;42.678;23.364;2023-10-08T03:40:41;13.05;;;4.22;;
6133;SDS011;3098;42.678;23.364;2023-10-08T03:43:08;9.50;;;4.65;;
6133;SDS011;3098;42.678;23.364;2023-10-08T03:45:50;13.63;;;4.97;;
6133;SDS011;3098;42.678;23.364;2023-10-08T03:48:24;8.48;;;3.85;;
6133;SDS011;3098;42.678;23.364;2023-10-08T03:50:55;10.95;;;4.78;;
6133;SDS011;3098;42.678;23.364;2023-10-08T03:53:31;9.20;;;4.03;;
6133;SDS011;3098;42.678;23.364;2023-10-08T03:56:07;14.10;;;5.28;;
6133;SDS011;3098;42.678;23.364;2023-10-08T03:58:39;9.70;;;4.82;;
6133;SDS011;3098;42.678;23.364;2023-10-08T04:01:14;8.00;;;4.25;;
6133;SDS011;3098;42.678;23.364;2023-10-08T04:03:44;7.72;;;4.22;;
6133;SDS011;3098;42.678;23.364;2023-10-08T04:06:23;8.68;;;4.35;;
6133;SDS011;3098;42.678;23.364;2023-10-08T04:08:56;9.77;;;4.10;;
6133;SDS011;3098;42.678;23.364;2023-10-08T04:11:36;8.98;;;4.53;;
6133;SDS011;3098;42.678;23.364;2023-10-08T04:14:17;11.63;;;5.60;;
6133;SDS011;3098;42.678;23.364;2023-10-08T04:16:49;8.95;;;4.30;;
6133;SDS011;3098;42.678;23.364;2023-10-08T04:19:19;8.20;;;4.10;;
6133;SDS011;3098;42.678;23.364;2023-10-08T04:21:52;10.15;;;4.65;;
6133;SDS011;3098;42.678;23.364;2023-10-08T04:24:20;16.45;;;5.60;;
6133;SDS011;3098;42.678;23.364;2023-10-08T04:26:54;11.18;;;5.60;;
6133;SDS011;3098;42.678;23.364;2023-10-08T04:29:27;12.15;;;5.55;;
6133;SDS011;3098;42.678;23.364;2023-10-08T04:32:04;15.50;;;6.65;;
6133;SDS011;3098;42.678;23.364;2023-10-08T04:34:37;17.10;;;7.93;;
6133;SDS011;3098;42.678;23.364;2023-10-08T04:37:10;15.10;;;6.50;;
6133;SDS011;3098;42.678;23.364;2023-10-08T04:39:38;17.92;;;7.25;;
6133;SDS011;3098;42.678;23.364;2023-10-08T04:42:12;17.65;;;7.45;;
6133;SDS011;3098;42.678;23.364;2023-10-08T04:44:50;19.50;;;6.43;;
6133;SDS011;3098;42.678;23.364;2023-10-08T04:47:23;16.00;;;6.50;;
6133;SDS011;3098;42.678;23.364;2023-10-08T04:50:00;15.98;;;7.13;;
6133;SDS011;3098;42.678;23.364;2023-10-08T04:52:30;16.33;;;7.40;;
6133;SDS011;3098;42.678;23.364;2023-10-08T04:54:59;18.27;;;7.40;;
6133;SDS011;3098;42.678;23.364;2023-10-08T04:57:38;19.60;;;7.10;;
6133;SDS011;3098;42.678;23.364;2023-10-08T05:00:08;13.75;;;5.95;;
6133;SDS011;3098;42.678;23.364;2023-10-08T05:02:42;23.50;;;8.60;;
6133;SDS011;3098;42.678;23.364;2023-10-08T05:05:16;15.40;;;6.45;;
6133;SDS011;3098;42.678;23.364;2023-10-08T05:07:54;19.98;;;9.18;;
6133;SDS011;3098;42.678;23.364;2023-10-08T05:10:42;14.48;;;6.95;;
6133;SDS011;3098;42.678;23.364;2023-10-08T05:13:26;13.90;;;6.72;;
6133;SDS011;3098;42.678;23.364;2023-10-08T05:15:58;14.15;;;6.50;;
6133;SDS011;3098;42.678;23.364;2023-10-08T05:18:49;18.48;;;7.80;;
6133;SDS011;3098;42.678;23.364;2023-10-08T05:21:36;15.98;;;6.55;;
6133;SDS011;3098;42.678;23.364;2023-10-08T05:24:17;11.93;;;5.72;;
6133;SDS011;3098;42.678;23.364;2023-10-08T05:26:53;16.17;;;6.05;;
6133;SDS011;3098;42.678;23.364;2023-10-08T05:29:44;22.52;;;10.80;;
6133;SDS011;3098;42.678;23.364;2023-10-08T05:32:34;18.30;;;8.40;;
6133;SDS011;3098;42.678;23.364;2023-10-08T05:35:33;14.30;;;7.47;;
6133;SDS011;3098;42.678;23.364;2023-10-08T05:38:20;23.05;;;10.07;;
6133;SDS011;3098;42.678;23.364;2023-10-08T05:41:24;29.40;;;12.30;;
6133;SDS011;3098;42.678;23.364;2023-10-08T05:44:05;18.75;;;9.20;;
6133;SDS011;3098;42.678;23.364;2023-10-08T05:46:49;12.00;;;6.78;;
6133;SDS011;3098;42.678;23.364;2023-10-08T05:49:34;11.65;;;6.22;;
6133;SDS011;3098;42.678;23.364;2023-10-08T05:52:36;19.65;;;7.35;;
6133;SDS011;3098;42.678;23.364;2023-10-08T05:55:17;11.55;;;5.28;;
6133;SDS011;3098;42.678;23.364;2023-10-08T05:57:51;12.70;;;6.05;;
6133;SDS011;3098;42.678;23.364;2023-10-08T06:00:28;8.52;;;4.93;;
6133;SDS011;3098;42.678;23.364;2023-10-08T06:03:13;12.63;;;6.47;;
6133;SDS011;3098;42.678;23.364;2023-10-08T06:06:04;21.10;;;9.35;;
6133;SDS011;3098;42.678;23.364;2023-10-08T06:09:04;8.35;;;5.25;;
6133;SDS011;3098;42.678;23.364;2023-10-08T06:11:45;23.20;;;7.75;;
6133;SDS011;3098;42.678;23.364;2023-10-08T06:14:33;11.05;;;5.68;;
6133;SDS011;3098;42.678;23.364;2023-10-08T06:17:32;11.90;;;6.00;;
6133;SDS011;3098;42.678;23.364;2023-10-08T06:20:24;12.48;;;6.22;;
6133;SDS011;3098;42.678;23.364;2023-10-08T06:22:58;10.50;;;5.53;;
6133;SDS011;3098;42.678;23.364;2023-10-08T06:25:35;17.58;;;7.82;;
6133;SDS011;3098;42.678;23.364;2023-10-08T06:28:11;13.43;;;7.03;;
6133;SDS011;3098;42.678;23.364;2023-10-08T06:30:52;10.20;;;5.32;;
6133;SDS011;3098;42.678;23.364;2023-10-08T06:33:22;12.32;;;5.60;;
6133;SDS011;3098;42.678;23.364;2023-10-08T06:35:55;13.57;;;6.80;;
6133;SDS011;3098;42.678;23.364;2023-10-08T06:38:38;10.63;;;5.90;;
6133;SDS011;3098;42.678;23.364;2023-10-08T06:41:11;14.10;;;6.82;;
6133;SDS011;3098;42.678;23.364;2023-10-08T06:43:43;18.55;;;10.57;;
6133;SDS011;3098;42.678;23.364;2023-10-08T06:46:15;18.48;;;9.82;;
6133;SDS011;3098;42.678;23.364;2023-10-08T06:48:46;11.55;;;7.50;;
6133;SDS011;3098;42.678;23.364;2023-10-08T06:51:16;12.65;;;7.45;;
6133;SDS011;3098;42.678;23.364;2023-10-08T06:53:45;21.13;;;9.13;;
6133;SDS011;3098;42.678;23.364;2023-10-08T06:56:20;16.08;;;10.57;;
6133;SDS011;3098;42.678;23.364;2023-10-08T06:58:50;12.13;;;6.20;;
6133;SDS011;3098;42.678;23.364;2023-10-08T07:01:20;14.00;;;7.68;;
6133;SDS011;3098;42.678;23.364;2023-10-08T07:03:50;12.48;;;6.97;;
6133;SDS011;3098;42.678;23.364;2023-10-08T07:06:23;16.52;;;7.60;;
6133;SDS011;3098;42.678;23.364;2023-10-08T07:08:57;12.13;;;7.47;;
6133;SDS011;3098;42.678;23.364;2023-10-08T07:11:38;14.55;;;7.38;;
6133;SDS011;3098;42.678;23.364;2023-10-08T07:14:09;13.50;;;5.93;;
6133;SDS011;3098;42.678;23.364;2023-10-08T07:16:39;16.35;;;7.13;;
6133;SDS011;3098;42.678;23.364;2023-10-08T07:19:09;14.35;;;6.40;;
6133;SDS011;3098;42.678;23.364;2023-10-08T07:21:45;13.52;;;5.85;;
6133;SDS011;3098;42.678;23.364;2023-10-08T07:24:14;14.25;;;6.35;;
6133;SDS011;3098;42.678;23.364;2023-10-08T07:26:49;19.67;;;8.82;;
6133;SDS011;3098;42.678;23.364;2023-10-08T07:29:21;12.57;;;6.70;;
6133;SDS011;3098;42.678;23.364;2023-10-08T07:31:50;13.35;;;6.63;;
6133;SDS011;3098;42.678;23.364;2023-10-08T07:34:20;20.13;;;7.53;;
6133;SDS011;3098;42.678;23.364;2023-10-08T07:36:57;15.00;;;6.50;;
6133;SDS011;3098;42.678;23.364;2023-10-08T07:39:27;18.05;;;7.38;;
6133;SDS011;3098;42.678;23.364;2023-10-08T07:42:04;14.27;;;8.25;;
6133;SDS011;3098;42.678;23.364;2023-10-08T07:44:36;15.80;;;7.57;;
6133;SDS011;3098;42.678;23.364;2023-10-08T07:47:07;15.15;;;7.15;;
6133;SDS011;3098;42.678;23.364;2023-10-08T07:49:43;13.23;;;6.68;;
6133;SDS011;3098;42.678;23.364;2023-10-08T07:52:16;18.10;;;8.70;;
6133;SDS011;3098;42.678;23.364;2023-10-08T07:54:49;20.73;;;7.43;;
6133;SDS011;3098;42.678;23.364;2023-10-08T07:57:27;17.92;;;7.28;;
6133;SDS011;3098;42.678;23.364;2023-10-08T08:00:03;15.52;;;6.70;;
6133;SDS011;3098;42.678;23.364;2023-10-08T08:02:44;15.43;;;6.30;;
6133;SDS011;3098;42.678;23.364;2023-10-08T08:05:13;14.50;;;6.90;;
6133;SDS011;3098;42.678;23.364;2023-10-08T08:07:45;14.30;;;5.97;;
6133;SDS011;3098;42.678;23.364;2023-10-08T08:10:15;12.77;;;6.95;;
6133;SDS011;3098;42.678;23.364;2023-10-08T08:12:50;10.15;;;6.03;;
6133;SDS011;3098;42.678;23.364;2023-10-08T08:15:21;20.48;;;7.80;;
6133;SDS011;3098;42.678;23.364;2023-10-08T08:17:52;12.27;;;6.03;;
6133;SDS011;3098;42.678;23.364;2023-10-08T08:20:21;17.83;;;6.32;;
6133;SDS011;3098;42.678;23.364;2023-10-08T08:22:59;11.10;;;5.53;;
6133;SDS011;3098;42.678;23.364;2023-10-08T08:25:35;9.45;;;5.45;;
6133;SDS011;3098;42.678;23.364;2023-10-08T08:28:13;10.75;;;5.35;;
6133;SDS011;3098;42.678;23.364;2023-10-08T08:30:46;10.40;;;5.43;;
6133;SDS011;3098;42.678;23.364;2023-10-08T08:33:18;10.93;;;5.75;;
6133;SDS011;3098;42.678;23.364;2023-10-08T08:35:58;13.00;;;5.53;;
6133;SDS011;3098;42.678;23.364;2023-10-08T08:38:26;11.68;;;5.30;;
6133;SDS011;3098;42.678;23.364;2023-10-08T08:41:01;13.60;;;5.45;;
6133;SDS011;3098;42.678;23.364;2023-10-08T08:43:38;16.45;;;5.38;;
6133;SDS011;3098;42.678;23.364;2023-10-08T08:46:09;12.88;;;6.25;;
6133;SDS011;3098;42.678;23.364;2023-10-08T08:48:39;11.30;;;4.93;;
6133;SDS011;3098;42.678;23.364;2023-10-08T08:51:09;10.45;;;4.18;;
6133;SDS011;3098;42.678;23.364;2023-10-08T08:53:39;8.93;;;3.97;;
6133;SDS011;3098;42.678;23.364;2023-10-08T08:56:09;8.15;;;4.15;;
6133;SDS011;3098;42.678;23.364;2023-10-08T08:58:39;6.00;;;3.20;;
6133;SDS011;3098;42.678;23.364;2023-10-08T09:01:07;8.73;;;5.20;;
6133;SDS011;3098;42.678;23.364;2023-10-08T09:03:39;10.73;;;4.78;;
6133;SDS011;3098;42.678;23.364;2023-10-08T09:06:07;7.50;;;4.07;;
6133;SDS011;3098;42.678;23.364;2023-10-08T09:08:37;7.15;;;3.17;;
6133;SDS011;3098;42.678;23.364;2023-10-08T09:11:07;10.05;;;3.55;;
6133;SDS011;3098;42.678;23.364;2023-10-08T09:13:36;9.60;;;3.17;;
6133;SDS011;3098;42.678;23.364;2023-10-08T09:16:11;7.68;;;3.80;;
6133;SDS011;3098;42.678;23.364;2023-10-08T09:18:41;10.73;;;3.80;;
6133;SDS011;3098;42.678;23.364;2023-10-08T09:21:12;10.70;;;4.35;;
6133;SDS011;3098;42.678;23.364;2023-10-08T09:23:44;17.38;;;3.50;;
6133;SDS011;3098;42.678;23.364;2023-10-08T09:26:17;9.10;;;3.85;;
6133;SDS011;3098;42.678;23.364;2023-10-08T09:28:45;7.60;;;3.22;;
6133;SDS011;3098;42.678;23.364;2023-10-08T09:31:18;7.40;;;3.45;;
6133;SDS011;3098;42.678;23.364;2023-10-08T09:34:00;8.15;;;3.53;;
6133;SDS011;3098;42.678;23.364;2023-10-08T09:36:30;7.95;;;3.83;;
6133;SDS011;3098;42.678;23.364;2023-10-08T09:39:03;6.97;;;3.22;;
6133;SDS011;3098;42.678;23.364;2023-10-08T09:41:33;13.30;;;5.20;;
6133;SDS011;3098;42.678;23.364;2023-10-08T09:44:05;8.48;;;4.32;;
6133;SDS011;3098;42.678;23.364;2023-10-08T09:46:44;8.02;;;4.20;;
6133;SDS011;3098;42.678;23.364;2023-10-08T09:49:24;9.07;;;4.00;;
6133;SDS011;3098;42.678;23.364;2023-10-08T09:52:02;9.10;;;3.45;;
6133;SDS011;3098;42.678;23.364;2023-10-08T09:54:42;16.88;;;3.33;;
6133;SDS011;3098;42.678;23.364;2023-10-08T09:57:13;6.47;;;3.17;;
6133;SDS011;3098;42.678;23.364;2023-10-08T09:59:44;10.27;;;3.78;;
6133;SDS011;3098;42.678;23.364;2023-10-08T10:02:16;5.40;;;2.80;;
6133;SDS011;3098;42.678;23.364;2023-10-08T10:04:46;6.20;;;3.28;;
6133;SDS011;3098;42.678;23.364;2023-10-08T10:07:18;4.50;;;2.92;;
6133;SDS011;3098;42.678;23.364;2023-10-08T10:09:49;6.35;;;2.83;;
6133;SDS011;3098;42.678;23.364;2023-10-08T10:12:19;8.25;;;3.55;;
6133;SDS011;3098;42.678;23.364;2023-10-08T10:14:53;7.38;;;3.28;;
6133;SDS011;3098;42.678;23.364;2023-10-08T10:17:29;8.60;;;3.50;;
6133;SDS011;3098;42.678;23.364;2023-10-08T10:19:59;9.63;;;2.90;;
6133;SDS011;3098;42.678;23.364;2023-10-08T10:22:32;8.75;;;3.20;;
6133;SDS011;3098;42.678;23.364;2023-10-08T10:25:01;8.85;;;3.35;;
6133;SDS011;3098;42.678;23.364;2023-10-08T10:27:40;8.77;;;3.38;;
6133;SDS011;3098;42.678;23.364;2023-10-08T10:30:09;8.52;;;2.60;;
6133;SDS011;3098;42.678;23.364;2023-10-08T10:32:45;18.83;;;3.63;;
6133;SDS011;3098;42.678;23.364;2023-10-08T10:35:14;11.55;;;2.85;;
6133;SDS011;3098;42.678;23.364;2023-10-08T10:37:43;10.60;;;3.63;;
6133;SDS011;3098;42.678;23.364;2023-10-08T10:40:19;17.40;;;3.33;;
6133;SDS011;3098;42.678;23.364;2023-10-08T10:42:55;9.95;;;3.17;;
6133;SDS011;3098;42.678;23.364;2023-10-08T10:45:28;9.05;;;3.10;;
6133;SDS011;3098;42.678;23.364;2023-10-08T10:48:04;7.03;;;3.30;;
6133;SDS011;3098;42.678;23.364;2023-10-08T10:50:39;8.18;;;3.30;;
6133;SDS011;3098;42.678;23.364;2023-10-08T10:53:14;5.78;;;3.22;;
6133;SDS011;3098;42.678;23.364;2023-10-08T10:55:44;8.18;;;3.55;;
6133;SDS011;3098;42.678;23.364;2023-10-08T10:58:25;8.05;;;3.20;;
6133;SDS011;3098;42.678;23.364;2023-10-08T11:00:53;9.88;;;2.78;;
6133;SDS011;3098;42.678;23.364;2023-10-08T11:03:26;9.45;;;3.13;;
6133;SDS011;3098;42.678;23.364;2023-10-08T11:05:55;13.07;;;3.13;;
6133;SDS011;3098;42.678;23.364;2023-10-08T11:08:25;5.28;;;2.63;;
6133;SDS011;3098;42.678;23.364;2023-10-08T11:10:59;9.38;;;3.00;;
6133;SDS011;3098;42.678;23.364;2023-10-08T11:13:32;7.18;;;2.83;;
6133;SDS011;3098;42.678;23.364;2023-10-08T11:16:04;6.65;;;3.22;;
6133;SDS011;3098;42.678;23.364;2023-10-08T11:18:40;9.10;;;3.00;;
6133;SDS011;3098;42.678;23.364;2023-10-08T11:21:12;14.82;;;3.30;;
6133;SDS011;3098;42.678;23.364;2023-10-08T11:23:48;5.82;;;2.83;;
6133;SDS011;3098;42.678;23.364;2023-10-08T11:26:22;7.20;;;2.55;;
6133;SDS011;3098;42.678;23.364;2023-10-08T11:28:59;6.90;;;3.78;;
6133;SDS011;3098;42.678;23.364;2023-10-08T11:31:28;7.25;;;3.28;;
6133;SDS011;3098;42.678;23.364;2023-10-08T11:34:00;11.88;;;3.30;;
6133;SDS011;3098;42.678;23.364;2023-10-08T11:36:35;6.78;;;3.28;;
6133;SDS011;3098;42.678;23.364;2023-10-08T11:39:14;6.30;;;2.17;;
6133;SDS011;3098;42.678;23.364;2023-10-08T11:41:55;9.23;;;3.30;;
6133;SDS011;3098;42.678;23.364;2023-10-08T11:44:28;12.48;;;3.40;;
6133;SDS011;3098;42.678;23.364;2023-10-08T11:46:56;10.25;;;3.45;;
6133;SDS011;3098;42.678;23.364;2023-10-08T11:49:31;8.23;;;3.30;;
6133;SDS011;3098;42.678;23.364;2023-10-08T11:52:02;10.43;;;3.80;;
6133;SDS011;3098;42.678;23.364;2023-10-08T11:54:30;11.18;;;4.93;;
6133;SDS011;3098;42.678;23.364;2023-10-08T11:56:59;9.95;;;3.20;;
6133;SDS011;3098;42.678;23.364;2023-10-08T11:59:28;11.15;;;4.30;;
6133;SDS011;3098;42.678;23.364;2023-10-08T12:01:57;8.38;;;3.33;;
6133;SDS011;3098;42.678;23.364;2023-10-08T12:04:25;8.10;;;3.22;;
6133;SDS011;3098;42.678;23.364;2023-10-08T12:06:56;13.85;;;3.50;;
6133;SDS011;3098;42.678;23.364;2023-10-08T12:09:28;15.13;;;4.82;;
6133;SDS011;3098;42.678;23.364;2023-10-08T12:11:56;6.28;;;2.97;;
6133;SDS011;3098;42.678;23.364;2023-10-08T12:14:23;11.50;;;3.65;;
6133;SDS011;3098;42.678;23.364;2023-10-08T12:16:55;12.65;;;2.92;;
6133;SDS011;3098;42.678;23.364;2023-10-08T12:19:25;9.40;;;2.95;;
6133;SDS011;3098;42.678;23.364;2023-10-08T12:21:59;10.98;;;3.17;;
6133;SDS011;3098;42.678;23.364;2023-10-08T12:24:28;6.05;;;3.08;;
6133;SDS011;3098;42.678;23.364;2023-10-08T12:26:56;8.32;;;3.28;;
6133;SDS011;3098;42.678;23.364;2023-10-08T12:29:23;9.18;;;3.58;;
6133;SDS011;3098;42.678;23.364;2023-10-08T12:31:52;11.00;;;3.05;;
6133;SDS011;3098;42.678;23.364;2023-10-08T12:34:20;16.95;;;3.10;;
6133;SDS011;3098;42.678;23.364;2023-10-08T12:36:48;6.63;;;2.95;;
6133;SDS011;3098;42.678;23.364;2023-10-08T12:39:18;8.45;;;3.03;;
6133;SDS011;3098;42.678;23.364;2023-10-08T12:41:50;7.25;;;3.05;;
6133;SDS011;3098;42.678;23.364;2023-10-08T12:44:18;11.43;;;2.85;;
6133;SDS011;3098;42.678;23.364;2023-10-08T12:46:48;11.40;;;3.08;;
6133;SDS011;3098;42.678;23.364;2023-10-08T12:49:16;8.45;;;2.90;;
6133;SDS011;3098;42.678;23.364;2023-10-08T12:51:46;12.73;;;3.33;;
6133;SDS011;3098;42.678;23.364;2023-10-08T12:54:14;8.30;;;2.45;;
6133;SDS011;3098;42.678;23.364;2023-10-08T12:56:49;11.13;;;2.75;;
6133;SDS011;3098;42.678;23.364;2023-10-08T12:59:20;10.88;;;2.95;;
6133;SDS011;3098;42.678;23.364;2023-10-08T13:01:49;9.00;;;2.60;;
6133;SDS011;3098;42.678;23.364;2023-10-08T13:04:19;11.75;;;2.53;;
6133;SDS011;3098;42.678;23.364;2023-10-08T13:06:51;11.15;;;3.10;;
6133;SDS011;3098;42.678;23.364;2023-10-08T13:09:22;14.18;;;3.20;;
6133;SDS011;3098;42.678;23.364;2023-10-08T13:11:52;20.27;;;3.22;;
6133;SDS011;3098;42.678;23.364;2023-10-08T13:14:20;15.68;;;3.20;;
6133;SDS011;3098;42.678;23.364;2023-10-08T13:16:48;6.78;;;2.67;;
6133;SDS011;3098;42.678;23.364;2023-10-08T13:19:19;25.33;;;3.17;;
6133;SDS011;3098;42.678;23.364;2023-10-08T13:21:48;9.15;;;2.67;;
6133;SDS011;3098;42.678;23.364;2023-10-08T13:24:18;10.57;;;2.20;;
6133;SDS011;3098;42.678;23.364;2023-10-08T13:26:46;9.75;;;3.00;;
6133;SDS011;3098;42.678;23.364;2023-10-08T13:29:16;8.68;;;2.92;;
6133;SDS011;3098;42.678;23.364;2023-10-08T13:31:43;19.92;;;2.97;;
6133;SDS011;3098;42.678;23.364;2023-10-08T13:34:11;12.20;;;2.60;;
6133;SDS011;3098;42.678;23.364;2023-10-08T13:36:41;7.72;;;2.63;;
6133;SDS011;3098;42.678;23.364;2023-10-08T13:39:12;6.80;;;2.53;;
6133;SDS011;3098;42.678;23.364;2023-10-08T13:41:43;9.43;;;2.72;;
6133;SDS011;3098;42.678;23.364;2023-10-08T13:44:13;8.27;;;2.50;;
6133;SDS011;3098;42.678;23.364;2023-10-08T13:46:43;14.88;;;3.08;;
6133;SDS011;3098;42.678;23.364;2023-10-08T13:49:14;16.42;;;3.03;;
6133;SDS011;3098;42.678;23.364;2023-10-08T13:51:41;9.55;;;3.88;;
6133;SDS011;3098;42.678;23.364;2023-10-08T13:54:09;12.27;;;3.30;;
6133;SDS011;3098;42.678;23.364;2023-10-08T13:56:39;6.70;;;2.75;;
6133;SDS011;3098;42.678;23.364;2023-10-08T13:59:13;16.20;;;3.33;;
6133;SDS011;3098;42.678;23.364;2023-10-08T14:01:43;8.23;;;3.20;;
6133;SDS011;3098;42.678;23.364;2023-10-08T14:04:13;15.32;;;2.78;;
6133;SDS011;3098;42.678;23.364;2023-10-08T14:06:45;9.75;;;3.08;;
6133;SDS011;3098;42.678;23.364;2023-10-08T14:09:17;11.00;;;3.33;;
6133;SDS011;3098;42.678;23.364;2023-10-08T14:11:47;5.75;;;2.40;;
6133;SDS011;3098;42.678;23.364;2023-10-08T14:14:18;9.95;;;2.85;;
6133;SDS011;3098;42.678;23.364;2023-10-08T14:16:50;6.15;;;2.50;;
6133;SDS011;3098;42.678;23.364;2023-10-08T14:19:19;10.20;;;2.95;;
6133;SDS011;3098;42.678;23.364;2023-10-08T14:21:53;11.43;;;2.92;;
6133;SDS011;3098;42.678;23.364;2023-10-08T14:24:28;9.60;;;3.17;;
6133;SDS011;3098;42.678;23.364;2023-10-08T14:26:58;8.05;;;2.83;;
6133;SDS011;3098;42.678;23.364;2023-10-08T14:29:28;7.70;;;2.72;;
6133;SDS011;3098;42.678;23.364;2023-10-08T14:32:02;15.65;;;3.88;;
6133;SDS011;3098;42.678;23.364;2023-10-08T14:34:34;11.45;;;2.50;;
6133;SDS011;3098;42.678;23.364;2023-10-08T14:37:15;24.38;;;3.10;;
6133;SDS011;3098;42.678;23.364;2023-10-08T14:40:02;8.70;;;2.70;;
6133;SDS011;3098;42.678;23.364;2023-10-08T14:42:47;13.05;;;3.15;;
6133;SDS011;3098;42.678;23.364;2023-10-08T14:45:27;13.68;;;3.25;;
6133;SDS011;3098;42.678;23.364;2023-10-08T14:47:58;16.50;;;4.70;;
6133;SDS011;3098;42.678;23.364;2023-10-08T14:50:25;14.73;;;2.90;;
6133;SDS011;3098;42.678;23.364;2023-10-08T14:52:56;12.80;;;4.03;;
6133;SDS011;3098;42.678;23.364;2023-10-08T14:55:25;26.42;;;3.88;;
6133;SDS011;3098;42.678;23.364;2023-10-08T14:57:53;12.13;;;3.15;;
6133;SDS011;3098;42.678;23.364;2023-10-08T15:00:21;18.20;;;3.90;;
6133;SDS011;3098;42.678;23.364;2023-10-08T15:02:51;12.32;;;4.05;;
6133;SDS011;3098;42.678;23.364;2023-10-08T15:05:22;10.98;;;2.63;;
6133;SDS011;3098;42.678;23.364;2023-10-08T15:07:51;8.52;;;3.13;;
6133;SDS011;3098;42.678;23.364;2023-10-08T15:10:19;9.35;;;2.85;;
6133;SDS011;3098;42.678;23.364;2023-10-08T15:12:48;15.82;;;3.20;;
6133;SDS011;3098;42.678;23.364;2023-10-08T15:15:17;13.35;;;2.85;;
6133;SDS011;3098;42.678;23.364;2023-10-08T15:17:59;12.40;;;3.17;;
6133;SDS011;3098;42.678;23.364;2023-10-08T15:20:33;11.32;;;2.70;;
6133;SDS011;3098;42.678;23.364;2023-10-08T15:23:00;7.95;;;2.67;;
6133;SDS011;3098;42.678;23.364;2023-10-08T15:25:29;17.58;;;3.40;;
6133;SDS011;3098;42.678;23.364;2023-10-08T15:27:57;16.50;;;4.30;;